Time;durP1;ratioP1;P1;durP2;ratioP2;P2;SDS_P1;SDS_P2;PMS_P1;PMS_P2;Temp;Humidity;BMP_temperature;BMP_pressure;BME280_temperature;BME280_humidity;BME280_pressure;Samples;Min_cycle;Max_cycle;Signal;HPM_P1;HPM_P2
2022/06/16 00:00:32;;;;;;;4.63;2.92;;;;;;;16.97;54.10;97305.81;5067008;28;20045;-65
2022/06/16 00:02:59;;;;;;;5.40;3.15;;;;;;;16.96;54.31;97298.72;5067554;28;20442;-65
2022/06/16 00:05:28;;;;;;;7.40;3.72;;;;;;;16.88;54.57;97313.88;5066632;28;20045;-65
2022/06/16 00:07:56;;;;;;;4.18;2.80;;;;;;;16.85;54.81;97304.31;5067112;28;20055;-66
2022/06/16 00:10:23;;;;;;;5.70;2.97;;;;;;;16.83;54.92;97306.56;5066313;28;20067;-65
2022/06/16 00:12:50;;;;;;;5.18;3.05;;;;;;;16.78;55.01;97304.69;5066630;28;20048;-66
2022/06/16 00:15:21;;;;;;;5.28;3.83;;;;;;;16.87;54.90;97293.91;5066800;28;20056;-66
2022/06/16 00:17:48;;;;;;;5.10;3.05;;;;;;;16.86;54.70;97291.47;5066974;28;20056;-65
2022/06/16 00:20:14;;;;;;;5.85;3.33;;;;;;;16.67;55.00;97289.56;5066551;28;20201;-65
2022/06/16 00:22:41;;;;;;;7.43;2.90;;;;;;;16.64;55.17;97287.41;5066865;28;20131;-65
2022/06/16 00:25:09;;;;;;;5.88;2.95;;;;;;;16.65;54.79;97289.00;5067147;28;20045;-65
2022/06/16 00:27:36;;;;;;;7.22;2.90;;;;;;;16.65;55.03;97294.47;5066263;28;20036;-65
2022/06/16 00:30:04;;;;;;;6.05;3.10;;;;;;;16.58;55.39;97296.78;5067085;28;20047;-65
2022/06/16 00:32:30;;;;;;;6.10;2.95;;;;;;;16.57;55.38;97293.22;5066624;28;20484;-65
2022/06/16 00:34:57;;;;;;;5.63;2.72;;;;;;;16.49;55.61;97288.41;5066521;28;20539;-66
2022/06/16 00:37:24;;;;;;;6.50;3.10;;;;;;;16.43;55.63;97289.59;5065202;28;20055;-66
2022/06/16 00:39:51;;;;;;;4.80;2.83;;;;;;;16.46;55.42;97287.09;5066586;28;20044;-65
2022/06/16 00:42:20;;;;;;;7.18;3.05;;;;;;;16.49;55.33;97282.94;5066425;28;20055;-66
2022/06/16 00:44:51;;;;;;;5.60;2.90;;;;;;;16.49;55.20;97285.69;5066575;28;20044;-66
2022/06/16 00:47:24;;;;;;;5.20;3.03;;;;;;;16.52;55.53;97288.63;5066375;28;20066;-66
2022/06/16 00:49:53;;;;;;;5.95;2.80;;;;;;;16.52;55.21;97285.91;5066125;28;20344;-64
2022/06/16 00:52:25;;;;;;;6.07;3.05;;;;;;;16.52;55.39;97282.38;5064964;28;20055;-65
2022/06/16 00:54:55;;;;;;;;;;;;;;;16.42;55.77;97282.47;5065458;28;20063;-65
2022/06/16 00:57:30;;;;;;;7.50;3.20;;;;;;;16.31;56.22;97284.53;5065858;28;19974;-65
2022/06/16 00:59:58;;;;;;;5.55;2.97;;;;;;;16.19;56.75;97280.31;5065502;28;20385;-65
2022/06/16 01:02:28;;;;;;;4.10;2.75;;;;;;;16.08;56.83;97278.78;5066407;28;20491;-66
2022/06/16 01:04:55;;;;;;;5.85;3.13;;;;;;;15.94;57.56;97274.03;5066657;28;20045;-65
2022/06/16 01:07:28;;;;;;;5.47;3.33;;;;;;;15.92;57.36;97276.19;5065705;28;20579;-65
2022/06/16 01:09:56;;;;;;;4.55;3.10;;;;;;;15.99;57.30;97270.41;5065801;28;20047;-65
2022/06/16 01:15:59;;;;;;;7.05;3.60;;;;;;;15.79;58.29;97277.69;5064938;28;20044;-65
2022/06/16 01:18:32;;;;;;;5.03;2.97;;;;;;;15.86;58.28;97274.63;5065865;28;20071;-65
2022/06/16 01:21:23;;;;;;;6.47;3.10;;;;;;;15.57;58.87;97279.00;5064399;28;20040;-66
2022/06/16 01:24:18;;;;;;;5.68;3.00;;;;;;;15.43;60.02;97287.03;5064835;28;20136;-66
2022/06/16 01:27:03;;;;;;;9.48;3.40;;;;;;;15.25;60.75;97279.56;5063713;28;20041;-65
2022/06/16 01:29:39;;;;;;;4.45;2.80;;;;;;;15.20;60.79;97274.94;5064552;28;20036;-65
2022/06/16 01:32:31;;;;;;;5.00;3.20;;;;;;;15.23;60.56;97268.09;5062697;28;20044;-66
2022/06/16 01:35:17;;;;;;;;;;;;;;;15.43;59.33;97272.56;5063311;28;20052;-65
2022/06/16 01:38:03;;;;;;;4.78;3.13;;;;;;;15.56;58.48;97269.16;5063845;28;19927;-65
2022/06/16 01:40:38;;;;;;;7.13;2.90;;;;;;;15.63;58.21;97265.31;5068105;28;20094;-65
2022/06/16 01:43:12;;;;;;;5.32;3.53;;;;;;;15.55;58.28;97267.53;5069550;28;20044;-66
2022/06/16 01:45:45;;;;;;;5.82;3.00;;;;;;;15.52;58.89;97261.84;5068288;28;20049;-66
2022/06/16 01:48:18;;;;;;;7.18;3.20;;;;;;;15.44;59.31;97252.38;5068488;28;20048;-65
2022/06/16 01:50:54;;;;;;;5.20;2.90;;;;;;;15.49;58.88;97255.06;5068125;28;20053;-65
2022/06/16 01:53:34;;;;;;;4.95;3.10;;;;;;;15.56;58.60;97255.53;5069899;28;20097;-65
2022/06/16 01:56:17;;;;;;;4.78;2.90;;;;;;;15.63;58.49;97252.47;5068244;28;20040;-65
2022/06/16 01:58:49;;;;;;;5.43;2.92;;;;;;;15.56;58.53;97246.53;5067911;28;20049;-66
2022/06/16 02:01:19;;;;;;;5.93;3.15;;;;;;;15.53;58.60;97252.56;5068022;28;20144;-65
2022/06/16 02:03:51;;;;;;;5.45;2.80;;;;;;;15.59;58.16;97244.03;5069615;28;20044;-65
2022/06/16 02:06:24;;;;;;;5.50;2.80;;;;;;;15.59;58.19;97243.25;5068890;28;20128;-66
2022/06/16 02:08:55;;;;;;;4.72;3.08;;;;;;;15.55;58.02;97237.53;5068195;28;20048;-65
2022/06/16 02:11:32;;;;;;;4.47;2.95;;;;;;;15.44;58.79;97247.72;5067286;28;20139;-66
2022/06/16 02:14:29;;;;;;;4.22;2.80;;;;;;;15.28;59.79;97243.50;5068164;28;20055;-65
2022/06/16 02:17:03;;;;;;;8.95;3.13;;;;;;;15.17;60.07;97248.22;5067790;28;20158;-65
2022/06/16 02:19:31;;;;;;;7.20;4.05;;;;;;;15.13;60.25;97242.53;5067207;28;20044;-65
2022/06/16 02:21:57;;;;;;;4.85;3.05;;;;;;;15.20;59.54;97237.59;5067275;28;20050;-65
2022/06/16 02:24:26;;;;;;;4.35;2.75;;;;;;;15.27;59.36;97234.53;5068193;28;20450;-66
2022/06/16 02:26:56;;;;;;;6.20;2.80;;;;;;;15.34;58.90;97231.47;5068041;28;20048;-65
2022/06/16 02:29:29;;;;;;;7.68;3.20;;;;;;;15.41;58.49;97242.84;5067146;28;20083;-65
2022/06/16 02:32:31;;;;;;;8.07;3.03;;;;;;;15.45;58.39;97238.44;5067553;28;20037;-66
2022/06/16 02:35:26;;;;;;;4.53;2.95;;;;;;;15.51;58.25;97227.50;5067299;28;20045;-66
2022/06/16 02:38:05;;;;;;;4.55;3.20;;;;;;;15.47;58.23;97225.31;5067620;28;20040;-65
2022/06/16 02:40:50;;;;;;;7.85;3.65;;;;;;;15.38;58.51;97223.50;5068329;28;20044;-65
2022/06/16 02:43:44;;;;;;;5.07;3.15;;;;;;;15.32;58.91;97222.72;5068615;28;20037;-66
2022/06/16 02:46:24;;;;;;;5.45;3.15;;;;;;;15.22;58.81;97220.91;5068143;28;20600;-66
2022/06/16 02:49:13;;;;;;;4.50;3.40;;;;;;;15.12;59.71;97218.28;5067539;28;20102;-65
2022/06/16 02:51:59;;;;;;;4.88;2.90;;;;;;;15.14;59.37;97221.53;5066533;28;20041;-66
2022/06/16 02:54:34;;;;;;;6.20;3.05;;;;;;;15.09;59.73;97219.66;5067551;28;20527;-66
2022/06/16 02:57:12;;;;;;;4.30;2.70;;;;;;;15.10;59.52;97215.84;5068214;28;20051;-66
2022/06/16 02:59:45;;;;;;;4.32;2.70;;;;;;;15.06;59.94;97218.31;5068766;28;20044;-65
2022/06/16 03:02:20;;;;;;;4.68;3.25;;;;;;;15.00;60.30;97213.19;5066186;28;20188;-65
2022/06/16 03:04:56;;;;;;;6.57;3.28;;;;;;;14.90;60.42;97220.38;5067023;28;20049;-65
2022/06/16 03:07:25;;;;;;;6.53;3.70;;;;;;;14.73;61.33;97226.16;5066017;28;20036;-65
2022/06/16 03:10:06;;;;;;;5.43;3.15;;;;;;;14.65;61.93;97233.03;5066687;28;20078;-65
2022/06/16 03:12:34;;;;;;;4.70;3.35;;;;;;;14.66;61.69;97223.75;5066773;28;20044;-65
2022/06/16 03:15:01;;;;;;;6.60;3.28;;;;;;;14.63;61.73;97223.50;5066198;28;20074;-66
2022/06/16 03:17:31;;;;;;;5.13;3.38;;;;;;;14.74;61.39;97229.72;5065135;28;20058;-65
2022/06/16 03:19:58;;;;;;;7.38;3.28;;;;;;;14.72;61.44;97232.72;5064653;28;20044;-65
2022/06/16 03:22:25;;;;;;;5.30;2.70;;;;;;;14.75;61.30;97228.59;5063399;28;20167;-66
2022/06/16 03:24:51;;;;;;;5.40;3.30;;;;;;;14.78;61.29;97225.34;5044178;28;20444;-65
2022/06/16 03:27:18;;;;;;;4.78;3.00;;;;;;;14.79;61.15;97229.69;5054760;28;20512;-65
2022/06/16 03:29:45;;;;;;;7.40;3.50;;;;;;;14.82;60.91;97231.88;5062931;28;20343;-65
2022/06/16 03:32:13;;;;;;;5.05;3.33;;;;;;;14.88;60.90;97244.34;5064203;28;20040;-65
2022/06/16 03:34:41;;;;;;;4.57;2.75;;;;;;;14.93;60.60;97235.34;5064584;28;20044;-65
2022/06/16 03:37:08;;;;;;;5.97;3.00;;;;;;;14.82;61.36;97240.84;5065003;28;20534;-65
2022/06/16 03:39:55;;;;;;;5.95;3.42;;;;;;;14.77;61.32;97245.50;5066764;28;20049;-65
2022/06/16 03:42:22;;;;;;;5.97;3.50;;;;;;;14.80;61.43;97247.69;5066071;28;20044;-66
2022/06/16 03:44:50;;;;;;;4.18;2.78;;;;;;;14.90;61.15;97257.69;5066467;28;20056;-66
2022/06/16 03:47:17;;;;;;;5.82;3.58;;;;;;;14.98;60.99;97259.00;5065851;28;20041;-66
2022/06/16 03:49:45;;;;;;;5.15;3.10;;;;;;;15.10;60.30;97262.19;5065950;28;20054;-66
2022/06/16 03:52:11;;;;;;;5.10;2.90;;;;;;;15.17;60.24;97264.59;5066571;28;20131;-66
2022/06/16 03:54:45;;;;;;;7.57;3.38;;;;;;;15.23;60.47;97265.38;5065334;28;20040;-66
2022/06/16 03:57:13;;;;;;;5.47;4.10;;;;;;;15.27;60.09;97264.53;5065950;28;20036;-66
2022/06/16 03:59:40;;;;;;;6.93;3.75;;;;;;;15.35;59.85;97260.34;5065944;28;20122;-66
2022/06/16 04:02:16;;;;;;;5.97;3.65;;;;;;;15.53;59.14;97266.19;5066492;28;20045;-65
2022/06/16 04:04:45;;;;;;;4.53;3.15;;;;;;;15.66;58.65;97279.16;5066619;28;20424;-65
2022/06/16 04:07:11;;;;;;;4.93;2.95;;;;;;;15.79;58.32;97272.25;5065694;28;20040;-65
2022/06/16 04:09:45;;;;;;;6.75;3.28;;;;;;;15.86;58.20;97280.09;5066110;28;20458;-65
2022/06/16 04:12:11;;;;;;;4.15;2.72;;;;;;;15.89;58.26;97278.69;5065977;28;20419;-65
2022/06/16 04:14:38;;;;;;;5.55;3.13;;;;;;;15.86;58.40;97277.34;5066305;28;20045;-65
2022/06/16 04:17:06;;;;;;;5.05;3.33;;;;;;;15.85;58.66;97282.00;5065520;28;20101;-65
2022/06/16 04:20:11;;;;;;;6.07;3.10;;;;;;;15.95;58.66;97289.28;5065730;28;20040;-65
2022/06/16 04:22:25;;;;;;;4.30;2.90;;;;;;;16.09;58.01;97296.78;5062845;28;20084;-65
2022/06/16 04:25:07;;;;;;;5.20;3.10;;;;;;;16.23;57.61;97302.38;5063336;28;20048;-65
2022/06/16 04:27:34;;;;;;;5.18;3.25;;;;;;;16.22;57.81;97293.38;5063093;28;20047;-66
2022/06/16 04:30:05;;;;;;;6.50;3.10;;;;;;;16.29;57.75;97292.22;5063175;28;20131;-65
2022/06/16 04:32:32;;;;;;;4.57;3.03;;;;;;;16.35;57.62;97297.31;5063693;28;20545;-66
2022/06/16 04:34:58;;;;;;;5.60;3.28;;;;;;;16.56;55.98;97286.13;5063280;28;20052;-65
2022/06/16 04:37:36;;;;;;;4.55;2.92;;;;;;;16.78;55.92;97285.56;5062924;28;20041;-66
2022/06/16 04:40:03;;;;;;;5.30;3.03;;;;;;;16.94;55.12;97288.06;5060181;28;20048;-65
2022/06/16 04:42:30;;;;;;;4.47;3.05;;;;;;;17.09;54.81;97295.28;5064097;28;20074;-65
2022/06/16 04:44:58;;;;;;;6.55;3.20;;;;;;;17.20;54.51;97304.13;5065294;28;20048;-65
2022/06/16 04:47:26;;;;;;;5.65;2.60;;;;;;;17.33;54.47;97308.06;5064563;28;20334;-65
2022/06/16 04:49:54;;;;;;;8.27;3.20;;;;;;;17.36;54.44;97315.66;5064348;28;20279;-65
2022/06/16 04:52:21;;;;;;;4.57;2.88;;;;;;;17.42;54.33;97310.91;5062923;28;20051;-65
2022/06/16 04:54:51;;;;;;;4.47;2.90;;;;;;;17.39;54.57;97317.78;5063472;28;20519;-65
2022/06/16 04:57:58;;;;;;;6.00;2.83;;;;;;;17.41;54.68;97312.03;5055658;28;20059;-65
2022/06/16 05:00:43;;;;;;;8.25;2.83;;;;;;;17.50;54.65;97312.13;5052701;28;20052;-66
2022/06/16 05:03:49;;;;;;;6.35;2.90;;;;;;;17.60;54.53;97308.44;5064956;28;20423;-66
2022/06/16 05:06:23;;;;;;;7.28;2.95;;;;;;;17.74;54.28;97316.69;5068245;28;20045;-65
2022/06/16 05:09:06;;;;;;;5.82;2.58;;;;;;;17.88;53.53;97305.78;5066891;28;20189;-65
2022/06/16 05:11:53;;;;;;;5.35;2.40;;;;;;;18.09;53.16;97314.44;5068015;28;20106;-65
2022/06/16 05:14:40;;;;;;;8.50;2.83;;;;;;;18.28;53.64;97316.28;5063884;28;20652;-65
2022/06/16 05:17:28;;;;;;;6.47;2.95;;;;;;;18.50;53.92;97315.56;5066631;28;20041;-65
2022/06/16 05:20:13;;;;;;;7.65;3.03;;;;;;;18.70;53.26;97311.59;5067898;28;20054;-66
2022/06/16 05:22:58;;;;;;;6.00;3.10;;;;;;;19.03;52.43;97312.53;5068648;28;20637;-65
2022/06/16 05:25:48;;;;;;;4.88;2.53;;;;;;;19.37;51.20;97319.47;5067440;28;20143;-66
2022/06/16 05:28:23;;;;;;;4.68;3.05;;;;;;;19.54;51.53;97321.53;5067282;28;20138;-65
2022/06/16 05:31:12;;;;;;;6.38;2.63;;;;;;;19.70;50.67;97323.88;5063247;28;20063;-65
2022/06/16 05:33:57;;;;;;;6.90;2.80;;;;;;;19.74;53.24;97324.88;5066614;28;20041;-65
2022/06/16 05:36:28;;;;;;;5.90;2.60;;;;;;;19.93;51.20;97323.88;5066331;28;20082;-65
2022/06/16 05:39:30;;;;;;;;;;;;;;;20.14;50.04;97324.16;5062659;28;20083;-66
2022/06/16 05:42:20;;;;;;;4.50;2.90;;;;;;;20.32;49.94;97327.81;5053187;28;19935;-65
2022/06/16 05:45:11;;;;;;;5.45;2.90;;;;;;;20.46;48.63;97335.13;5067377;28;20481;-65
2022/06/16 05:47:58;;;;;;;7.78;2.95;;;;;;;20.56;49.12;97325.78;5066710;28;20518;-66
2022/06/16 05:50:29;;;;;;;;;;;;;;;20.53;48.54;97327.25;5066949;28;20052;-66
2022/06/16 05:52:56;;;;;;;6.38;3.10;;;;;;;20.54;49.10;97328.84;5066036;28;19928;-66
2022/06/16 05:55:28;;;;;;;6.90;2.85;;;;;;;20.57;47.82;97335.66;5066584;28;20255;-66
2022/06/16 05:57:54;;;;;;;6.07;3.22;;;;;;;20.56;48.69;97347.78;5066332;28;20036;-66
2022/06/16 06:00:21;;;;;;;5.97;2.60;;;;;;;20.64;48.37;97350.53;5067378;28;20064;-66
2022/06/16 06:02:57;;;;;;;6.82;2.92;;;;;;;20.82;48.37;97342.34;5068224;28;20577;-65
2022/06/16 06:05:28;;;;;;;6.85;3.20;;;;;;;21.09;47.87;97346.00;5065890;28;20079;-66
2022/06/16 06:16:25;;;;;;;5.47;2.95;;;;;;;21.58;46.36;97320.22;5064944;28;20077;-65
2022/06/16 06:18:54;;;;;;;8.05;2.92;;;;;;;21.74;46.30;97322.50;5064975;28;20037;-66
2022/06/16 06:24:10;;;;;;;7.07;3.15;;;;;;;21.98;46.16;97334.91;5067146;28;20913;-65
2022/06/16 06:26:38;;;;;;;7.93;3.05;;;;;;;22.12;45.57;97332.78;5065364;28;20049;-65
2022/06/16 06:29:06;;;;;;;9.35;2.88;;;;;;;22.27;45.00;97338.88;5064846;28;20044;-66
2022/06/16 06:31:32;;;;;;;7.22;2.72;;;;;;;22.38;43.40;97342.91;5067130;28;20048;-65
2022/06/16 06:33:59;;;;;;;5.10;2.55;;;;;;;22.51;42.69;97343.03;5064783;28;20111;-66
2022/06/16 06:36:25;;;;;;;4.90;2.50;;;;;;;22.73;42.75;97347.47;5065847;28;20442;-65
2022/06/16 06:38:52;;;;;;;6.15;3.00;;;;;;;22.86;43.66;97351.13;5065354;28;20036;-66
2022/06/16 06:41:18;;;;;;;4.25;2.50;;;;;;;22.90;45.29;97348.50;5066668;28;20051;-66
2022/06/16 06:43:46;;;;;;;7.07;3.10;;;;;;;22.84;44.92;97361.69;5066639;28;20266;-66
2022/06/16 06:46:13;;;;;;;5.35;2.83;;;;;;;22.82;45.21;97372.25;5067240;28;20451;-66
2022/06/16 06:48:40;;;;;;;4.15;2.67;;;;;;;22.80;44.89;97372.59;5065932;28;20045;-66
2022/06/16 06:51:07;;;;;;;3.95;2.25;;;;;;;22.79;44.90;97378.44;5066459;28;20045;-65
2022/06/16 06:53:34;;;;;;;4.75;2.83;;;;;;;22.73;43.07;97384.16;5066584;28;20063;-66
2022/06/16 06:56:00;;;;;;;5.45;2.53;;;;;;;22.79;43.21;97386.72;5066161;28;20133;-66
2022/06/16 06:58:31;;;;;;;4.40;2.60;;;;;;;22.93;43.87;97390.06;5066579;28;20450;-66
2022/06/16 07:01:01;;;;;;;5.88;2.75;;;;;;;23.02;42.43;97392.78;5066355;28;20044;-66
2022/06/16 07:03:29;;;;;;;3.85;2.55;;;;;;;23.18;42.83;97397.72;5057723;28;20048;-66
2022/06/16 07:05:56;;;;;;;6.85;3.00;;;;;;;23.21;42.78;97400.59;5065219;28;20048;-65
2022/06/16 07:08:23;;;;;;;5.53;3.15;;;;;;;22.78;43.85;97409.94;5066253;28;20040;-66
2022/06/16 07:10:49;;;;;;;4.50;3.00;;;;;;;22.76;45.09;97406.69;5065982;28;20045;-66
2022/06/16 07:13:16;;;;;;;6.00;3.45;;;;;;;22.48;45.41;97418.94;5066313;28;20040;-66
2022/06/16 07:15:43;;;;;;;9.90;3.80;;;;;;;22.25;46.99;97415.63;5066267;28;20063;-66
2022/06/16 07:18:09;;;;;;;6.70;3.60;;;;;;;;;;5065568;28;20040;-65
2022/06/16 07:20:35;;;;;;;5.22;3.70;;;;;;;21.70;48.13;97427.00;5065842;28;20066;-65
2022/06/16 07:23:02;;;;;;;6.93;3.55;;;;;;;21.77;49.67;97429.31;5065213;28;20056;-66
2022/06/16 07:25:28;;;;;;;8.10;3.60;;;;;;;21.79;49.47;97438.88;5065244;28;20584;-65
2022/06/16 07:27:56;;;;;;;6.72;3.33;;;;;;;21.91;48.89;97440.97;5065196;28;20047;-65
2022/06/16 07:30:24;;;;;;;6.85;3.60;;;;;;;21.95;49.62;97443.88;5065882;28;20117;-66
2022/06/16 07:32:51;;;;;;;6.10;3.55;;;;;;;22.07;50.30;97445.97;5065899;28;20225;-65
2022/06/16 07:35:21;;;;;;;5.45;3.45;;;;;;;22.20;49.27;97446.94;5065603;28;20044;-65
2022/06/16 07:37:48;;;;;;;6.35;4.20;;;;;;;22.39;49.49;97452.09;5065553;28;20041;-65
2022/06/16 07:40:18;;;;;;;6.15;3.60;;;;;;;22.29;48.88;97455.22;5063830;28;20109;-66
2022/06/16 07:42:44;;;;;;;5.90;3.92;;;;;;;22.18;49.67;97465.75;5064518;28;20243;-66
2022/06/16 07:45:12;;;;;;;5.80;4.07;;;;;;;22.41;49.41;97463.59;5065902;28;20040;-66
2022/06/16 07:47:39;;;;;;;5.50;3.30;;;;;;;22.52;47.32;97464.06;5065300;28;20051;-65
2022/06/16 07:50:08;;;;;;;5.50;3.38;;;;;;;22.56;47.68;97467.00;5064129;28;20105;-65
2022/06/16 07:52:36;;;;;;;7.10;3.40;;;;;;;22.88;47.02;97472.25;5063726;28;20044;-66
2022/06/16 07:55:04;;;;;;;10.73;3.72;;;;;;;22.97;46.12;97462.00;5065668;28;20049;-66
2022/06/16 07:57:34;;;;;;;10.50;3.30;;;;;;;23.05;44.83;97477.72;5065373;28;20513;-66
2022/06/16 08:00:01;;;;;;;6.53;3.60;;;;;;;22.84;45.48;97481.19;5064820;28;20076;-65
2022/06/16 08:02:38;;;;;;;6.40;3.30;;;;;;;22.89;45.21;97480.22;5065266;28;20048;-66
2022/06/16 08:05:05;;;;;;;10.50;3.75;;;;;;;22.46;45.44;97485.50;5065137;28;20079;-66
2022/06/16 08:07:32;;;;;;;7.15;4.18;;;;;;;22.06;45.63;97475.50;5064872;28;20044;-66
2022/06/16 08:09:59;;;;;;;7.57;3.78;;;;;;;22.05;47.02;97473.91;5064531;28;20041;-65
2022/06/16 08:12:26;;;;;;;6.97;3.25;;;;;;;22.18;46.94;97477.59;5065178;28;20055;-65
2022/06/16 08:14:52;;;;;;;5.72;3.03;;;;;;;22.48;46.32;97477.72;5065269;28;20132;-65
2022/06/16 08:17:24;;;;;;;6.25;2.90;;;;;;;22.69;44.78;97490.84;5064820;28;20048;-66
2022/06/16 08:19:52;;;;;;;6.10;3.40;;;;;;;22.64;45.21;97485.50;5064213;28;20048;-65
2022/06/16 08:22:19;;;;;;;9.60;3.33;;;;;;;22.85;44.67;97479.25;5059157;28;20106;-65
2022/06/16 08:24:49;;;;;;;5.18;2.97;;;;;;;22.88;44.70;97483.31;5065366;28;20051;-65
2022/06/16 08:27:19;;;;;;;6.22;3.05;;;;;;;23.09;44.90;97477.84;5064234;28;20052;-65
2022/06/16 08:29:47;;;;;;;5.93;3.25;;;;;;;23.21;44.19;97475.19;5065108;28;20052;-66
2022/06/16 08:32:17;;;;;;;5.45;3.00;;;;;;;23.40;44.88;97482.25;5064679;28;20075;-65
2022/06/16 08:34:44;;;;;;;7.57;3.53;;;;;;;23.45;44.22;97486.78;5064993;28;20273;-65
2022/06/16 08:37:11;;;;;;;6.15;3.28;;;;;;;23.52;44.71;97481.53;5064560;28;20048;-66
2022/06/16 08:39:37;;;;;;;4.88;3.25;;;;;;;23.64;44.98;97481.63;5063862;28;20045;-65
2022/06/16 08:42:24;;;;;;;6.10;2.97;;;;;;;23.76;43.69;97500.22;5064331;28;20048;-65
2022/06/16 08:45:06;;;;;;;7.90;3.00;;;;;;;23.72;43.12;97499.28;5064872;28;20040;-65
2022/06/16 08:47:49;;;;;;;5.75;2.80;;;;;;;23.82;43.02;97500.03;5061202;28;20055;-66
2022/06/16 08:50:33;;;;;;;8.27;3.08;;;;;;;23.88;42.86;97502.25;5066568;28;20058;-65
2022/06/16 08:52:59;;;;;;;7.95;2.53;;;;;;;23.96;42.63;97524.63;5066310;28;20040;-65
2022/06/16 08:56:07;;;;;;;6.35;2.70;;;;;;;23.89;42.74;97508.59;5066389;28;20048;-65
2022/06/16 08:58:53;;;;;;;8.43;2.67;;;;;;;23.99;42.79;97515.69;5066546;28;20048;-65
2022/06/16 09:01:30;;;;;;;6.32;2.83;;;;;;;24.32;43.01;97514.13;5066967;28;20068;-65
2022/06/16 09:04:17;;;;;;;5.72;3.10;;;;;;;24.22;42.74;97529.19;5067097;28;20051;-65
2022/06/16 09:06:49;;;;;;;6.63;2.83;;;;;;;24.36;42.69;97528.91;5065825;28;20549;-65
2022/06/16 09:12:57;;;;;;;5.30;2.90;;;;;;;24.19;43.35;97529.84;5066359;28;20052;-65
2022/06/16 09:15:37;;;;;;;5.57;2.88;;;;;;;23.86;43.69;97534.13;5066262;28;20075;-65
2022/06/16 09:18:29;;;;;;;5.80;2.87;;;;;;;23.95;43.16;97523.81;5066016;28;20036;-65
2022/06/16 09:21:38;;;;;;;7.78;2.70;;;;;;;24.29;42.98;97529.44;5047175;28;20056;-66
2022/06/16 09:24:30;;;;;;;5.40;3.08;;;;;;;24.31;42.04;97535.44;5044878;28;20060;-66
2022/06/16 09:27:20;;;;;;;5.85;2.72;;;;;;;24.11;42.42;97529.59;5046815;28;20045;-65
2022/06/16 09:29:55;;;;;;;5.20;2.90;;;;;;;24.29;42.80;97546.06;5045799;28;20045;-65
2022/06/16 09:32:40;;;;;;;7.50;2.80;;;;;;;24.20;42.85;97537.00;5066146;28;20052;-65
2022/06/16 09:35:20;;;;;;;6.38;2.92;;;;;;;24.32;41.95;97534.28;5065464;28;20044;-65
2022/06/16 09:37:55;;;;;;;4.70;2.53;;;;;;;24.49;43.45;97533.31;5062966;28;20051;-65
2022/06/16 09:40:35;;;;;;;6.18;3.20;;;;;;;24.55;42.51;97545.00;5059698;28;20542;-65
2022/06/16 09:43:12;;;;;;;6.85;3.20;;;;;;;24.53;43.08;97528.72;5064470;28;20059;-66
2022/06/16 09:45:48;;;;;;;6.18;3.28;;;;;;;24.85;42.83;97544.88;5064641;28;20041;-66
2022/06/16 09:48:24;;;;;;;6.53;2.90;;;;;;;25.14;42.30;97528.41;5063431;28;20123;-65
2022/06/16 09:51:11;;;;;;;5.85;2.75;;;;;;;25.02;41.23;97532.78;5064920;28;20044;-66
2022/06/16 09:53:57;;;;;;;5.85;3.20;;;;;;;25.05;41.24;97545.94;5065465;28;20041;-66
2022/06/16 09:56:28;;;;;;;4.78;2.78;;;;;;;25.00;41.82;97548.94;5068214;28;20062;-66
2022/06/16 09:59:01;;;;;;;5.78;2.70;;;;;;;25.10;42.07;97542.16;5054973;28;20041;-65
2022/06/16 10:01:34;;;;;;;7.13;2.80;;;;;;;24.78;42.96;97550.94;5067300;28;20542;-65
2022/06/16 10:04:05;;;;;;;8.52;3.30;;;;;;;25.03;43.09;97547.44;5067745;28;20048;-66
2022/06/16 10:07:09;;;;;;;4.40;2.50;;;;;;;25.23;42.90;97556.81;5067688;28;20044;-66
2022/06/16 10:10:03;;;;;;;5.43;2.83;;;;;;;24.87;43.52;97558.38;5067803;28;20416;-66
2022/06/16 10:12:58;;;;;;;5.50;2.90;;;;;;;25.09;42.63;97575.75;5067974;28;20048;-66
2022/06/16 10:15:42;;;;;;;6.82;3.13;;;;;;;24.81;42.97;97574.38;5057545;28;20040;-66
2022/06/16 10:18:10;;;;;;;8.75;3.33;;;;;;;24.87;42.50;97577.78;5066787;28;20416;-65
2022/06/16 10:20:38;;;;;;;4.53;2.78;;;;;;;24.70;43.10;97582.31;5067347;28;20063;-66
2022/06/16 10:23:14;;;;;;;5.40;3.03;;;;;;;24.64;42.79;97576.16;5069611;28;20048;-66
2022/06/16 10:25:48;;;;;;;5.65;2.90;;;;;;;24.86;43.29;97579.72;5069470;28;20048;-66
2022/06/16 10:28:44;;;;;;;7.88;3.10;;;;;;;25.15;41.78;97586.25;5068748;28;20040;-66
2022/06/16 10:31:37;;;;;;;9.10;3.05;;;;;;;25.28;40.63;97589.03;5068813;28;20045;-65
2022/06/16 10:34:15;;;;;;;8.05;3.13;;;;;;;25.28;41.17;97595.38;5069282;28;20079;-65
2022/06/16 10:36:50;;;;;;;5.90;3.28;;;;;;;25.12;41.58;97586.09;5069093;28;20067;-65
2022/06/16 10:39:38;;;;;;;8.45;3.20;;;;;;;25.20;41.84;97599.88;5068489;28;20535;-65
2022/06/16 10:42:26;;;;;;;6.05;2.90;;;;;;;25.23;41.58;97606.69;5068382;28;20098;-66
2022/06/16 10:45:18;;;;;;;9.40;3.25;;;;;;;25.50;41.82;97609.16;5068968;28;20040;-65
2022/06/16 10:47:53;;;;;;;6.68;2.97;;;;;;;25.68;40.60;97621.66;5068850;28;20060;-65
2022/06/16 10:50:32;;;;;;;7.65;2.92;;;;;;;25.78;41.23;97614.00;5068444;28;20130;-65
2022/06/16 10:53:15;;;;;;;4.53;3.00;;;;;;;25.66;40.61;97612.88;5068796;28;20067;-66
2022/06/16 10:55:44;;;;;;;5.05;2.85;;;;;;;25.69;40.38;97631.56;5068221;28;20040;-66
2022/06/16 10:58:23;;;;;;;6.45;3.38;;;;;;;25.97;40.97;97636.44;5069003;28;20500;-65
2022/06/16 11:01:10;;;;;;;5.15;2.80;;;;;;;26.07;40.00;97635.16;5068532;28;20040;-65
2022/06/16 11:04:32;;;;;;;5.47;3.08;;;;;;;25.91;39.54;97631.47;5068718;28;20496;-65
2022/06/16 11:06:59;;;;;;;6.00;3.05;;;;;;;25.61;40.27;97640.03;5065641;28;20538;-65
2022/06/16 11:09:31;;;;;;;10.60;3.92;;;;;;;25.56;40.15;97639.09;5068005;28;20036;-65
2022/06/16 11:12:04;;;;;;;7.35;3.88;;;;;;;25.47;39.49;97643.91;5068402;28;20045;-65
2022/06/16 11:14:47;;;;;;;7.45;3.08;;;;;;;25.37;40.50;97628.53;5067811;28;20396;-66
2022/06/16 11:17:19;;;;;;;6.53;3.13;;;;;;;25.76;39.17;97647.63;5068266;28;20048;-66
2022/06/16 11:20:02;;;;;;;5.50;3.05;;;;;;;25.56;38.98;97649.34;5067486;28;20060;-66
2022/06/16 11:22:38;;;;;;;7.05;2.70;;;;;;;26.01;39.34;97647.63;5068141;28;20420;-66
2022/06/16 11:25:34;;;;;;;3.67;2.60;;;;;;;26.56;38.88;97646.50;5067878;28;20043;-65
2022/06/16 11:28:07;;;;;;;8.38;3.20;;;;;;;26.59;38.09;97648.59;5067907;28;20048;-66
2022/06/16 11:30:36;;;;;;;5.40;2.55;;;;;;;26.81;38.76;97647.25;5067117;28;20052;-66
2022/06/16 11:33:06;;;;;;;7.60;2.85;;;;;;;26.87;37.08;97653.34;5068037;28;20045;-66
2022/06/16 11:35:48;;;;;;;9.45;3.22;;;;;;;26.43;36.55;97659.63;5067824;28;20041;-65
2022/06/16 11:38:44;;;;;;;9.73;2.90;;;;;;;26.03;38.07;97650.06;5067642;28;20044;-65
2022/06/16 11:41:15;;;;;;;6.22;3.30;;;;;;;26.10;37.55;97640.00;5067612;28;20446;-65
2022/06/16 11:43:57;;;;;;;8.85;2.80;;;;;;;26.13;38.37;97657.91;5067901;28;20443;-65
2022/06/16 11:46:38;;;;;;;5.82;2.78;;;;;;;26.52;38.04;97643.63;5067691;28;20516;-65
2022/06/16 11:49:15;;;;;;;6.03;3.25;;;;;;;26.86;37.53;97648.94;5067426;28;20071;-66
2022/06/16 11:51:52;;;;;;;5.63;2.85;;;;;;;27.07;35.95;97637.66;5067744;28;20044;-66
2022/06/16 11:54:34;;;;;;;4.90;3.03;;;;;;;27.24;36.43;97638.50;5066987;28;20126;-66
2022/06/16 11:57:35;;;;;;;6.95;2.50;;;;;;;26.85;37.13;97650.94;5067811;28;20036;-66
2022/06/16 12:00:18;;;;;;;5.00;2.83;;;;;;;27.13;36.90;97639.00;5066689;28;20032;-66
2022/06/16 12:03:05;;;;;;;6.95;2.75;;;;;;;27.33;37.32;97628.00;5067721;28;20078;-66
2022/06/16 12:05:41;;;;;;;5.45;2.70;;;;;;;26.98;37.02;97637.00;5066647;28;20046;-65
2022/06/16 12:08:26;;;;;;;5.55;2.88;;;;;;;27.17;35.71;97638.28;5067510;28;20045;-66
2022/06/16 12:10:59;;;;;;;6.07;2.97;;;;;;;26.88;35.64;97630.78;5067201;28;20045;-65
2022/06/16 12:13:36;;;;;;;5.70;3.00;;;;;;;27.25;35.78;97632.56;5067622;28;20040;-66
2022/06/16 12:16:44;;;;;;;5.72;3.25;;;;;;;27.19;35.99;97639.53;5066365;28;20045;-66
2022/06/16 12:19:13;;;;;;;6.32;2.92;;;;;;;27.43;35.51;97621.09;5067540;28;20033;-65
2022/06/16 12:21:51;;;;;;;5.82;3.05;;;;;;;27.70;35.07;97628.91;5066196;28;20045;-66
2022/06/16 12:24:42;;;;;;;5.88;2.55;;;;;;;27.32;34.62;97623.63;5067161;28;20059;-66
2022/06/16 12:27:21;;;;;;;6.95;3.00;;;;;;;27.60;34.74;97628.25;5066623;28;20055;-66
2022/06/16 12:29:54;;;;;;;8.88;4.13;;;;;;;27.82;34.49;97622.47;5067292;28;20411;-66